PWSweather.com
Personal Weather Stations
Station Observations
MENWDWX1
Menstrie, ScotlandGB

MenstrieScotlandGB

Lat: 56.148322, Lon: -3.85483

Elevation: 62

Station Type: Davis Vantage Pro 2

Latest ConditionsUpdated 7:05:01 AM GMT Tuesday, Jun 27, 2017
Currently Today's Max Today's Min Today's Average
Temperature 51.0°F10.6°C 55.4°F13.0°C 50.9°F10.5°C 52.7°F11.5°C
Dew Point 47.9°F8.8°C 49.4°F9.7°C 47.7°F8.7°C 48.5°F9.2°C
Winds 9.2 mph E14.8 kmh E 13.8 mph E22.2 kmh E - 7.7 mph 12.4 kmh
Wind Gusts 15.0 mph24.1 kmh 18.4 mph29.6 kmh - -
Humidity 89% 92% 76% 86%
Pressure 29.79 in1008.8 mb 29.87 in1011.5 mb 29.79 in1008.8 mb -
Precipitation - 0.26 in6.6 mm - -
Hour Temp Dew Point Humidity Winds Wind Gusts Pressure Precip Precip Rate Daily Precip Total
07:05 AM 51.0°F10.6°C 47.9°F8.8°C 89% 9.2 mph E14.8 kmh E 15.0 mph24.1 kmh 29.79 in1008.8 mb - 0.02 in0.5 mm 0.26 in6.6 mm
07:00 AM 51.0°F10.6°C 47.9°F8.8°C 89% 10.4 mph E16.7 kmh E 12.7 mph20.4 kmh 29.79 in1008.8 mb - 0.01 in0.3 mm 0.24 in6.1 mm
06:55 AM 50.9°F10.5°C 47.8°F8.8°C 89% 11.5 mph E18.5 kmh E 13.8 mph22.2 kmh 29.79 in1008.8 mb - 0.01 in0.3 mm 0.23 in5.8 mm
06:50 AM 51.0°F10.6°C 47.9°F8.8°C 89% 10.4 mph ESE16.7 kmh ESE 15.0 mph24.1 kmh 29.79 in1008.8 mb - 0.01 in0.3 mm 0.22 in5.6 mm
06:45 AM 51.0°F10.6°C 47.9°F8.8°C 89% 10.4 mph E16.7 kmh E 13.8 mph22.2 kmh 29.79 in1008.8 mb - 0.01 in0.3 mm 0.22 in5.6 mm
06:40 AM 51.1°F10.6°C 48.9°F9.4°C 92% 8.1 mph E13.0 kmh E 11.5 mph18.5 kmh 29.79 in1008.8 mb - 0.00 in0.0 mm 0.21 in5.3 mm
06:35 AM 51.1°F10.6°C 48.0°F8.9°C 89% 10.4 mph E16.7 kmh E 15.0 mph24.1 kmh 29.79 in1008.8 mb - 0.01 in0.3 mm 0.21 in5.3 mm
06:30 AM 51.1°F10.6°C 48.0°F8.9°C 89% 10.4 mph E16.7 kmh E 11.5 mph18.5 kmh 29.79 in1008.8 mb - 0.02 in0.5 mm 0.20 in5.1 mm
06:25 AM 51.2°F10.7°C 48.1°F8.9°C 89% 10.4 mph E16.7 kmh E 11.5 mph18.5 kmh 29.79 in1008.8 mb - 0.02 in0.5 mm 0.19 in4.8 mm
06:20 AM 51.2°F10.7°C 48.1°F8.9°C 89% 8.1 mph E13.0 kmh E 10.4 mph16.7 kmh 29.79 in1008.8 mb - 0.00 in0.0 mm 0.17 in4.3 mm
06:15 AM 51.2°F10.7°C 47.8°F8.8°C 88% 9.2 mph E14.8 kmh E 10.4 mph16.7 kmh 29.79 in1008.8 mb - 0.01 in0.3 mm 0.17 in4.3 mm
06:10 AM 51.2°F10.7°C 47.8°F8.8°C 88% 8.1 mph E13.0 kmh E 11.5 mph18.5 kmh 29.79 in1008.8 mb - 0.01 in0.3 mm 0.17 in4.3 mm
06:05 AM 51.2°F10.7°C 48.1°F8.9°C 89% 10.4 mph E16.7 kmh E 15.0 mph24.1 kmh 29.79 in1008.8 mb - 0.00 in0.0 mm 0.16 in4.1 mm
06:00 AM 51.2°F10.7°C 48.0°F8.9°C 89% 8.1 mph E13.0 kmh E 15.0 mph24.1 kmh 29.80 in1009.1 mb - 0.01 in0.3 mm 0.16 in4.1 mm
05:55 AM 51.2°F10.7°C 48.0°F8.9°C 89% 9.2 mph E14.8 kmh E 10.4 mph16.7 kmh 29.80 in1009.1 mb - 0.01 in0.3 mm 0.15 in3.8 mm
05:50 AM 51.2°F10.7°C 48.1°F8.9°C 89% 9.2 mph E14.8 kmh E 16.1 mph25.9 kmh 29.80 in1009.1 mb - 0.00 in0.0 mm 0.14 in3.6 mm
05:45 AM 51.1°F10.6°C 48.0°F8.9°C 89% 8.1 mph E13.0 kmh E 10.4 mph16.7 kmh 29.80 in1009.1 mb - 0.01 in0.3 mm 0.14 in3.6 mm
05:40 AM 51.1°F10.6°C 47.7°F8.7°C 88% 13.8 mph E22.2 kmh E 18.4 mph29.6 kmh 29.80 in1009.1 mb - 0.01 in0.3 mm 0.13 in3.3 mm
05:35 AM 51.1°F10.6°C 48.0°F8.9°C 89% 9.2 mph E14.8 kmh E 13.8 mph22.2 kmh 29.80 in1009.1 mb - 0.01 in0.3 mm 0.13 in3.3 mm
05:30 AM 51.2°F10.7°C 48.1°F8.9°C 89% 6.9 mph E11.1 kmh E 11.5 mph18.5 kmh 29.81 in1009.5 mb - 0.01 in0.3 mm 0.12 in3.0 mm
05:25 AM 51.2°F10.7°C 48.1°F8.9°C 89% 9.2 mph E14.8 kmh E 16.1 mph25.9 kmh 29.81 in1009.5 mb - 0.00 in0.0 mm 0.12 in3.0 mm
05:20 AM 51.2°F10.7°C 48.1°F8.9°C 89% 8.1 mph E13.0 kmh E 12.7 mph20.4 kmh 29.81 in1009.5 mb - 0.01 in0.3 mm 0.12 in3.0 mm
05:15 AM 51.3°F10.7°C 48.1°F8.9°C 89% 6.9 mph E11.1 kmh E 12.7 mph20.4 kmh 29.81 in1009.5 mb - 0.00 in0.0 mm 0.11 in2.8 mm
05:10 AM 51.2°F10.7°C 48.1°F8.9°C 89% 8.1 mph E13.0 kmh E 11.5 mph18.5 kmh 29.81 in1009.5 mb - 0.00 in0.0 mm 0.11 in2.8 mm
05:05 AM 51.2°F10.7°C 48.1°F8.9°C 89% 6.9 mph ESE11.1 kmh ESE 9.2 mph14.8 kmh 29.81 in1009.5 mb - 0.01 in0.3 mm 0.11 in2.8 mm
05:00 AM 51.2°F10.7°C 48.1°F8.9°C 89% 5.8 mph E9.3 kmh E 8.1 mph13.0 kmh 29.81 in1009.5 mb - 0.00 in0.0 mm 0.10 in2.5 mm
04:55 AM 51.3°F10.7°C 48.2°F9.0°C 89% 6.9 mph E11.1 kmh E 9.2 mph14.8 kmh 29.81 in1009.5 mb - 0.00 in0.0 mm 0.10 in2.5 mm
04:50 AM 51.4°F10.8°C 48.5°F9.2°C 90% 8.1 mph E13.0 kmh E 11.5 mph18.5 kmh 29.81 in1009.5 mb - 0.01 in0.3 mm 0.10 in2.5 mm
04:45 AM 51.4°F10.8°C 48.6°F9.2°C 90% 8.1 mph E13.0 kmh E 10.4 mph16.7 kmh 29.81 in1009.5 mb - 0.00 in0.0 mm 0.09 in2.3 mm
04:40 AM 51.4°F10.8°C 48.6°F9.2°C 90% 5.8 mph E9.3 kmh E 10.4 mph16.7 kmh 29.81 in1009.5 mb - 0.00 in0.0 mm 0.09 in2.3 mm
04:35 AM 51.4°F10.8°C 48.6°F9.2°C 90% 5.8 mph E9.3 kmh E 10.4 mph16.7 kmh 29.81 in1009.5 mb - 0.00 in0.0 mm 0.09 in2.3 mm
04:30 AM 51.4°F10.8°C 48.6°F9.2°C 90% 5.8 mph ESE9.3 kmh ESE 8.1 mph13.0 kmh 29.82 in1009.8 mb - 0.00 in0.0 mm 0.09 in2.3 mm
04:25 AM 51.4°F10.8°C 48.6°F9.2°C 90% 4.6 mph ESE7.4 kmh ESE 9.2 mph14.8 kmh 29.82 in1009.8 mb - 0.01 in0.3 mm 0.09 in2.3 mm
04:20 AM 51.5°F10.8°C 48.7°F9.3°C 90% 5.8 mph E9.3 kmh E 10.4 mph16.7 kmh 29.82 in1009.8 mb - 0.00 in0.0 mm 0.08 in2.0 mm
04:15 AM 51.5°F10.8°C 48.7°F9.3°C 90% 5.8 mph E9.3 kmh E 9.2 mph14.8 kmh 29.82 in1009.8 mb - 0.00 in0.0 mm 0.08 in2.0 mm
04:10 AM 51.5°F10.8°C 48.7°F9.3°C 90% 5.8 mph E9.3 kmh E 9.2 mph14.8 kmh 29.82 in1009.8 mb - 0.01 in0.3 mm 0.08 in2.0 mm
04:05 AM 51.5°F10.8°C 48.7°F9.3°C 90% 5.8 mph E9.3 kmh E 10.4 mph16.7 kmh 29.82 in1009.8 mb - 0.00 in0.0 mm 0.07 in1.8 mm
04:00 AM 51.5°F10.8°C 48.7°F9.3°C 90% 6.9 mph E11.1 kmh E 8.1 mph13.0 kmh 29.82 in1009.8 mb - 0.00 in0.0 mm 0.07 in1.8 mm
03:55 AM 51.6°F10.9°C 48.8°F9.3°C 90% 5.8 mph ESE9.3 kmh ESE 6.9 mph11.1 kmh 29.82 in1009.8 mb - 0.00 in0.0 mm 0.07 in1.8 mm
03:50 AM 51.7°F10.9°C 48.8°F9.3°C 90% 5.8 mph E9.3 kmh E 9.2 mph14.8 kmh 29.82 in1009.8 mb - 0.01 in0.3 mm 0.07 in1.8 mm
03:45 AM 51.7°F10.9°C 48.9°F9.4°C 90% 5.8 mph E9.3 kmh E 8.1 mph13.0 kmh 29.83 in1010.2 mb - 0.00 in0.0 mm 0.07 in1.8 mm
03:40 AM 51.8°F11.0°C 48.7°F9.3°C 89% 6.9 mph E11.1 kmh E 9.2 mph14.8 kmh 29.83 in1010.2 mb - 0.01 in0.3 mm 0.07 in1.8 mm
03:35 AM 51.9°F11.1°C 48.8°F9.3°C 89% 6.9 mph E11.1 kmh E 9.2 mph14.8 kmh 29.83 in1010.2 mb - 0.00 in0.0 mm 0.06 in1.5 mm
03:30 AM 52.0°F11.1°C 48.9°F9.4°C 89% 5.8 mph E9.3 kmh E 6.9 mph11.1 kmh 29.83 in1010.2 mb - 0.00 in0.0 mm 0.06 in1.5 mm
03:25 AM 52.1°F11.2°C 49.0°F9.4°C 89% 5.8 mph ESE9.3 kmh ESE 13.8 mph22.2 kmh 29.83 in1010.2 mb - 0.01 in0.3 mm 0.06 in1.5 mm
03:20 AM 52.2°F11.2°C 49.1°F9.5°C 89% 6.9 mph E11.1 kmh E 9.2 mph14.8 kmh 29.83 in1010.2 mb - 0.01 in0.3 mm 0.05 in1.3 mm
03:15 AM 52.2°F11.2°C 49.1°F9.5°C 89% 6.9 mph E11.1 kmh E 9.2 mph14.8 kmh 29.83 in1010.2 mb - 0.00 in0.0 mm 0.04 in1.0 mm
03:10 AM 52.3°F11.3°C 49.2°F9.6°C 89% 5.8 mph E9.3 kmh E 11.5 mph18.5 kmh 29.84 in1010.5 mb - 0.00 in0.0 mm 0.04 in1.0 mm
03:05 AM 52.4°F11.3°C 49.3°F9.6°C 89% 6.9 mph E11.1 kmh E 11.5 mph18.5 kmh 29.84 in1010.5 mb - 0.01 in0.3 mm 0.04 in1.0 mm
03:00 AM 52.5°F11.4°C 49.4°F9.7°C 89% 6.9 mph E11.1 kmh E 9.2 mph14.8 kmh 29.84 in1010.5 mb - 0.01 in0.3 mm 0.03 in0.8 mm
02:55 AM 52.6°F11.4°C 49.4°F9.7°C 89% 4.6 mph ESE7.4 kmh ESE 8.1 mph13.0 kmh 29.84 in1010.5 mb - 0.00 in0.0 mm 0.03 in0.8 mm
02:50 AM 52.8°F11.6°C 49.3°F9.6°C 88% 4.6 mph ESE7.4 kmh ESE 9.2 mph14.8 kmh 29.84 in1010.5 mb - 0.00 in0.0 mm 0.03 in0.8 mm
02:45 AM 52.8°F11.6°C 49.3°F9.6°C 88% 4.6 mph ESE7.4 kmh ESE 8.1 mph13.0 kmh 29.84 in1010.5 mb - 0.00 in0.0 mm 0.03 in0.8 mm
02:40 AM 52.9°F11.6°C 49.4°F9.7°C 88% 5.8 mph E9.3 kmh E 10.4 mph16.7 kmh 29.84 in1010.5 mb - 0.01 in0.3 mm 0.03 in0.8 mm
02:35 AM 53.0°F11.7°C 49.2°F9.6°C 87% 4.6 mph ESE7.4 kmh ESE 13.8 mph22.2 kmh 29.84 in1010.5 mb - 0.00 in0.0 mm 0.02 in0.5 mm
02:30 AM 53.0°F11.7°C 49.2°F9.6°C 87% 6.9 mph E11.1 kmh E 11.5 mph18.5 kmh 29.84 in1010.5 mb - 0.01 in0.3 mm 0.02 in0.5 mm
02:25 AM 53.2°F11.8°C 49.1°F9.5°C 86% 8.1 mph E13.0 kmh E 9.2 mph14.8 kmh 29.84 in1010.5 mb - 0.00 in0.0 mm 0.01 in0.3 mm
02:20 AM 53.3°F11.8°C 49.2°F9.6°C 86% 4.6 mph E7.4 kmh E 8.1 mph13.0 kmh 29.84 in1010.5 mb - 0.00 in0.0 mm 0.01 in0.3 mm
02:15 AM 53.4°F11.9°C 49.0°F9.4°C 85% 6.9 mph E11.1 kmh E 11.5 mph18.5 kmh 29.84 in1010.5 mb - 0.00 in0.0 mm 0.01 in0.3 mm
02:10 AM 53.5°F11.9°C 49.1°F9.5°C 85% 6.9 mph E11.1 kmh E 9.2 mph14.8 kmh 29.84 in1010.5 mb - 0.00 in0.0 mm 0.01 in0.3 mm
02:05 AM 53.7°F12.1°C 49.0°F9.4°C 84% 6.9 mph ESE11.1 kmh ESE 12.7 mph20.4 kmh 29.84 in1010.5 mb - 0.00 in0.0 mm 0.01 in0.3 mm
02:00 AM 54.0°F12.2°C 48.9°F9.4°C 83% 8.1 mph ESE13.0 kmh ESE 11.5 mph18.5 kmh 29.85 in1010.8 mb - 0.01 in0.3 mm 0.01 in0.3 mm
01:55 AM 54.2°F12.3°C 48.8°F9.3°C 82% 6.9 mph ESE11.1 kmh ESE 10.4 mph16.7 kmh 29.85 in1010.8 mb - 0.00 in0.0 mm 0.00 in0.0 mm
01:50 AM 54.4°F12.4°C 48.7°F9.3°C 81% 9.2 mph E14.8 kmh E 15.0 mph24.1 kmh 29.85 in1010.8 mb - 0.00 in0.0 mm 0.00 in0.0 mm
01:45 AM 54.5°F12.5°C 48.5°F9.2°C 80% 11.5 mph E18.5 kmh E 13.8 mph22.2 kmh 29.85 in1010.8 mb - 0.00 in0.0 mm 0.00 in0.0 mm
01:40 AM 54.7°F12.6°C 48.3°F9.1°C 79% 9.2 mph E14.8 kmh E 12.7 mph20.4 kmh 29.85 in1010.8 mb - 0.00 in0.0 mm 0.00 in0.0 mm
01:35 AM 54.8°F12.7°C 48.1°F8.9°C 78% 9.2 mph E14.8 kmh E 13.8 mph22.2 kmh 29.85 in1010.8 mb - 0.00 in0.0 mm 0.00 in0.0 mm
01:30 AM 54.9°F12.7°C 48.2°F9.0°C 78% 9.2 mph E14.8 kmh E 11.5 mph18.5 kmh 29.85 in1010.8 mb - 0.00 in0.0 mm 0.00 in0.0 mm
01:25 AM 55.1°F12.8°C 48.0°F8.9°C 77% 8.1 mph E13.0 kmh E 11.5 mph18.5 kmh 29.85 in1010.8 mb - 0.00 in0.0 mm 0.00 in0.0 mm
01:20 AM 55.2°F12.9°C 48.1°F8.9°C 77% 8.1 mph E13.0 kmh E 12.7 mph20.4 kmh 29.85 in1010.8 mb - 0.00 in0.0 mm 0.00 in0.0 mm
01:15 AM 55.4°F13.0°C 47.9°F8.8°C 76% 8.1 mph E13.0 kmh E 10.4 mph16.7 kmh 29.85 in1010.8 mb - 0.00 in0.0 mm 0.00 in0.0 mm
01:10 AM 55.4°F13.0°C 48.0°F8.9°C 76% 6.9 mph E11.1 kmh E 10.4 mph16.7 kmh 29.85 in1010.8 mb - 0.00 in0.0 mm 0.00 in0.0 mm
01:05 AM 55.4°F13.0°C 48.0°F8.9°C 76% 10.4 mph E16.7 kmh E 13.8 mph22.2 kmh 29.85 in1010.8 mb - 0.00 in0.0 mm 0.00 in0.0 mm
01:00 AM 55.4°F13.0°C 48.0°F8.9°C 76% 10.4 mph E16.7 kmh E 11.5 mph18.5 kmh 29.85 in1010.8 mb - 0.00 in0.0 mm 0.00 in0.0 mm
12:55 AM 55.4°F13.0°C 48.3°F9.1°C 77% 10.4 mph ENE16.7 kmh ENE 17.3 mph27.8 kmh 29.86 in1011.2 mb - 0.00 in0.0 mm 0.00 in0.0 mm
12:50 AM 55.4°F13.0°C 48.3°F9.1°C 77% 10.4 mph E16.7 kmh E 12.7 mph20.4 kmh 29.86 in1011.2 mb - 0.00 in0.0 mm 0.00 in0.0 mm
12:45 AM 55.3°F12.9°C 48.2°F9.0°C 77% 6.9 mph E11.1 kmh E 8.1 mph13.0 kmh 29.86 in1011.2 mb - 0.00 in0.0 mm 0.00 in0.0 mm
12:40 AM 55.2°F12.9°C 48.1°F8.9°C 77% 4.6 mph E7.4 kmh E 6.9 mph11.1 kmh 29.86 in1011.2 mb - 0.00 in0.0 mm 0.00 in0.0 mm
12:35 AM 55.2°F12.9°C 48.1°F8.9°C 77% 9.2 mph E14.8 kmh E 11.5 mph18.5 kmh 29.86 in1011.2 mb - 0.00 in0.0 mm 0.00 in0.0 mm
12:30 AM 55.2°F12.9°C 48.4°F9.1°C 78% 6.9 mph E11.1 kmh E 9.2 mph14.8 kmh 29.86 in1011.2 mb - 0.00 in0.0 mm 0.00 in0.0 mm
12:25 AM 55.1°F12.8°C 48.4°F9.1°C 78% 8.1 mph E13.0 kmh E 11.5 mph18.5 kmh 29.86 in1011.2 mb - 0.00 in0.0 mm 0.00 in0.0 mm
12:20 AM 55.0°F12.8°C 48.3°F9.1°C 78% 10.4 mph E16.7 kmh E 13.8 mph22.2 kmh 29.86 in1011.2 mb - 0.00 in0.0 mm 0.00 in0.0 mm
12:15 AM 55.1°F12.8°C 48.3°F9.1°C 78% 6.9 mph E11.1 kmh E 10.4 mph16.7 kmh 29.86 in1011.2 mb - 0.00 in0.0 mm 0.00 in0.0 mm
12:10 AM 55.1°F12.8°C 48.3°F9.1°C 78% 8.1 mph E13.0 kmh E 12.7 mph20.4 kmh 29.86 in1011.2 mb - 0.00 in0.0 mm 0.00 in0.0 mm
12:05 AM 55.0°F12.8°C 48.3°F9.1°C 78% 6.9 mph E11.1 kmh E 9.2 mph14.8 kmh 29.86 in1011.2 mb - 0.00 in0.0 mm 0.00 in0.0 mm
12:00 AM 54.9°F12.7°C 48.2°F9.0°C 78% 6.9 mph E11.1 kmh E 10.4 mph16.7 kmh 29.87 in1011.5 mb - 0.00 in0.0 mm 0.00 in0.0 mm